Walgett, Australia
Current Conditions -  °F | °C
As of 7:00 AM on Sunday 26 Oct 2014 (Local Time) from YMOR Reporting Station
Clear Clear  
Wind Chill: 73°   Ceiling: Unl
Heat Index: 73°   Visibility: 6mi
Dew Point: 46°   Wind: 13mph
Humidity: 38%   Direction: 40°NE
Pressure: 29.94"   Gusts: NA
Location:  30.02°S, 148.12°E
Report Text: YMOR 252000Z AUTO 04011KT 9999 // NCD 23/08 Q1014
Loading
Personal Weather Stations






























Interactive Weather Map
Tropical Storm Tracking
New forecast layout! Learn more

10-Day Weather Forecast

Advertisements
Track Severe Weather on mobile